sensor_id;sensor_type;location;lat;lon;timestamp;temperature;humidity
23089;DHT22;11713;48.506;8.966;2023-03-13T00:01:28;9.00;99.90
23089;DHT22;11713;48.506;8.966;2023-03-13T00:03:54;8.90;99.90
23089;DHT22;11713;48.506;8.966;2023-03-13T00:06:22;8.90;99.90
23089;DHT22;11713;48.506;8.966;2023-03-13T00:08:48;8.90;99.90
23089;DHT22;11713;48.506;8.966;2023-03-13T00:11:14;8.90;99.90
23089;DHT22;11713;48.506;8.966;2023-03-13T00:13:41;8.90;99.90
23089;DHT22;11713;48.506;8.966;2023-03-13T00:16:09;8.80;99.90
23089;DHT22;11713;48.506;8.966;2023-03-13T00:18:36;8.80;99.90
23089;DHT22;11713;48.506;8.966;2023-03-13T00:21:05;8.80;99.90
23089;DHT22;11713;48.506;8.966;2023-03-13T00:23:32;8.80;99.90
23089;DHT22;11713;48.506;8.966;2023-03-13T00:26:00;8.80;99.90
23089;DHT22;11713;48.506;8.966;2023-03-13T00:28:27;8.80;99.90
23089;DHT22;11713;48.506;8.966;2023-03-13T00:33:38;8.80;99.90
23089;DHT22;11713;48.506;8.966;2023-03-13T00:36:10;8.90;99.90
23089;DHT22;11713;48.506;8.966;2023-03-13T00:38:37;8.90;99.90
23089;DHT22;11713;48.506;8.966;2023-03-13T00:41:10;9.00;99.90
23089;DHT22;11713;48.506;8.966;2023-03-13T00:43:37;9.00;99.90
23089;DHT22;11713;48.506;8.966;2023-03-13T00:46:04;9.00;99.90
23089;DHT22;11713;48.506;8.966;2023-03-13T00:48:30;9.10;99.90
23089;DHT22;11713;48.506;8.966;2023-03-13T00:50:56;9.10;99.90
23089;DHT22;11713;48.506;8.966;2023-03-13T00:53:22;9.00;99.90
23089;DHT22;11713;48.506;8.966;2023-03-13T00:55:59;9.10;99.90
23089;DHT22;11713;48.506;8.966;2023-03-13T00:58:27;9.10;99.90
23089;DHT22;11713;48.506;8.966;2023-03-13T01:00:54;9.10;99.90
23089;DHT22;11713;48.506;8.966;2023-03-13T01:03:22;9.10;99.90
23089;DHT22;11713;48.506;8.966;2023-03-13T01:05:57;9.10;99.90
23089;DHT22;11713;48.506;8.966;2023-03-13T01:08:26;9.00;99.90
23089;DHT22;11713;48.506;8.966;2023-03-13T01:13:26;8.90;99.90
23089;DHT22;11713;48.506;8.966;2023-03-13T01:15:51;8.90;99.90
23089;DHT22;11713;48.506;8.966;2023-03-13T01:18:17;8.90;99.90
23089;DHT22;11713;48.506;8.966;2023-03-13T01:20:43;8.90;99.90
23089;DHT22;11713;48.506;8.966;2023-03-13T01:23:09;8.80;99.90
23089;DHT22;11713;48.506;8.966;2023-03-13T01:25:36;8.80;99.90
23089;DHT22;11713;48.506;8.966;2023-03-13T01:28:03;8.80;99.90
23089;DHT22;11713;48.506;8.966;2023-03-13T01:30:29;8.80;99.90
23089;DHT22;11713;48.506;8.966;2023-03-13T01:32:55;8.80;99.90
23089;DHT22;11713;48.506;8.966;2023-03-13T01:35:22;8.80;99.90
23089;DHT22;11713;48.506;8.966;2023-03-13T01:37:47;8.70;99.90
23089;DHT22;11713;48.506;8.966;2023-03-13T01:40:13;8.70;99.90
23089;DHT22;11713;48.506;8.966;2023-03-13T01:42:57;8.70;99.90
23089;DHT22;11713;48.506;8.966;2023-03-13T01:48:18;8.60;99.90
23089;DHT22;11713;48.506;8.966;2023-03-13T01:50:47;8.60;99.90
23089;DHT22;11713;48.506;8.966;2023-03-13T01:53:22;8.60;99.90
23089;DHT22;11713;48.506;8.966;2023-03-13T01:55:49;8.50;99.90
23089;DHT22;11713;48.506;8.966;2023-03-13T01:58:15;8.50;99.90
23089;DHT22;11713;48.506;8.966;2023-03-13T02:00:42;8.50;99.90
23089;DHT22;11713;48.506;8.966;2023-03-13T02:03:12;8.50;99.90
23089;DHT22;11713;48.506;8.966;2023-03-13T02:05:41;8.50;99.90
23089;DHT22;11713;48.506;8.966;2023-03-13T02:08:31;8.50;99.90
23089;DHT22;11713;48.506;8.966;2023-03-13T02:11:23;8.50;99.90
23089;DHT22;11713;48.506;8.966;2023-03-13T02:13:49;8.50;99.90
23089;DHT22;11713;48.506;8.966;2023-03-13T02:16:17;8.50;99.90
23089;DHT22;11713;48.506;8.966;2023-03-13T02:18:47;8.60;99.90
23089;DHT22;11713;48.506;8.966;2023-03-13T02:24:14;8.80;99.90
23089;DHT22;11713;48.506;8.966;2023-03-13T02:26:42;8.80;99.90
23089;DHT22;11713;48.506;8.966;2023-03-13T02:29:09;8.80;99.90
23089;DHT22;11713;48.506;8.966;2023-03-13T02:31:45;8.90;99.90
23089;DHT22;11713;48.506;8.966;2023-03-13T02:34:13;9.00;99.90
23089;DHT22;11713;48.506;8.966;2023-03-13T02:36:41;9.10;99.90
23089;DHT22;11713;48.506;8.966;2023-03-13T02:39:08;9.20;99.90
23089;DHT22;11713;48.506;8.966;2023-03-13T02:41:35;9.20;99.90
23089;DHT22;11713;48.506;8.966;2023-03-13T02:44:02;9.30;99.90
23089;DHT22;11713;48.506;8.966;2023-03-13T02:46:30;9.30;99.90
23089;DHT22;11713;48.506;8.966;2023-03-13T02:48:57;9.40;99.90
23089;DHT22;11713;48.506;8.966;2023-03-13T02:51:37;9.50;99.90
23089;DHT22;11713;48.506;8.966;2023-03-13T02:54:07;9.50;99.90
23089;DHT22;11713;48.506;8.966;2023-03-13T02:56:37;9.60;99.90
23089;DHT22;11713;48.506;8.966;2023-03-13T02:59:06;9.70;99.90
23089;DHT22;11713;48.506;8.966;2023-03-13T03:01:33;9.70;99.90
23089;DHT22;11713;48.506;8.966;2023-03-13T03:04:00;9.70;99.90
23089;DHT22;11713;48.506;8.966;2023-03-13T03:06:25;9.80;99.90
23089;DHT22;11713;48.506;8.966;2023-03-13T03:08:52;9.80;99.90
23089;DHT22;11713;48.506;8.966;2023-03-13T03:11:18;9.90;99.90
23089;DHT22;11713;48.506;8.966;2023-03-13T03:13:48;9.90;99.90
23089;DHT22;11713;48.506;8.966;2023-03-13T03:16:16;9.90;99.90
23089;DHT22;11713;48.506;8.966;2023-03-13T03:18:45;10.00;99.90
23089;DHT22;11713;48.506;8.966;2023-03-13T03:21:11;10.10;99.90
23089;DHT22;11713;48.506;8.966;2023-03-13T03:23:38;10.10;99.90
23089;DHT22;11713;48.506;8.966;2023-03-13T03:26:05;10.20;99.90
23089;DHT22;11713;48.506;8.966;2023-03-13T03:28:32;10.20;99.90
23089;DHT22;11713;48.506;8.966;2023-03-13T03:31:04;10.20;99.90
23089;DHT22;11713;48.506;8.966;2023-03-13T03:33:30;10.20;99.90
23089;DHT22;11713;48.506;8.966;2023-03-13T03:36:02;10.20;99.90
23089;DHT22;11713;48.506;8.966;2023-03-13T03:38:29;10.20;99.90
23089;DHT22;11713;48.506;8.966;2023-03-13T03:40:55;10.20;99.90
23089;DHT22;11713;48.506;8.966;2023-03-13T03:43:21;10.10;99.90
23089;DHT22;11713;48.506;8.966;2023-03-13T03:45:47;10.20;99.90
23089;DHT22;11713;48.506;8.966;2023-03-13T03:48:13;10.10;99.90
23089;DHT22;11713;48.506;8.966;2023-03-13T03:50:39;10.20;99.90
23089;DHT22;11713;48.506;8.966;2023-03-13T03:53:05;10.10;99.90
23089;DHT22;11713;48.506;8.966;2023-03-13T03:55:31;10.10;99.90
23089;DHT22;11713;48.506;8.966;2023-03-13T03:57:57;10.10;99.90
23089;DHT22;11713;48.506;8.966;2023-03-13T04:00:45;10.10;99.90
23089;DHT22;11713;48.506;8.966;2023-03-13T04:03:12;10.10;99.90
23089;DHT22;11713;48.506;8.966;2023-03-13T04:05:38;10.10;99.90
23089;DHT22;11713;48.506;8.966;2023-03-13T04:08:05;10.10;99.90
23089;DHT22;11713;48.506;8.966;2023-03-13T04:10:31;10.10;99.90
23089;DHT22;11713;48.506;8.966;2023-03-13T04:12:57;10.10;99.90
23089;DHT22;11713;48.506;8.966;2023-03-13T04:15:23;10.20;99.90
23089;DHT22;11713;48.506;8.966;2023-03-13T04:17:49;10.20;99.90
23089;DHT22;11713;48.506;8.966;2023-03-13T04:20:21;10.30;99.90
23089;DHT22;11713;48.506;8.966;2023-03-13T04:22:47;10.30;99.90
23089;DHT22;11713;48.506;8.966;2023-03-13T04:25:14;10.30;99.90
23089;DHT22;11713;48.506;8.966;2023-03-13T04:27:40;10.40;99.90
23089;DHT22;11713;48.506;8.966;2023-03-13T04:30:07;10.50;99.90
23089;DHT22;11713;48.506;8.966;2023-03-13T04:33:01;10.60;99.90
23089;DHT22;11713;48.506;8.966;2023-03-13T04:35:39;10.60;99.90
23089;DHT22;11713;48.506;8.966;2023-03-13T04:38:43;10.60;99.90
23089;DHT22;11713;48.506;8.966;2023-03-13T04:41:46;10.60;99.90
23089;DHT22;11713;48.506;8.966;2023-03-13T04:44:24;10.50;99.90
23089;DHT22;11713;48.506;8.966;2023-03-13T04:47:10;10.50;99.90
23089;DHT22;11713;48.506;8.966;2023-03-13T04:49:47;10.50;99.90
23089;DHT22;11713;48.506;8.966;2023-03-13T04:52:29;10.50;99.90
23089;DHT22;11713;48.506;8.966;2023-03-13T04:55:20;10.50;99.90
23089;DHT22;11713;48.506;8.966;2023-03-13T04:57:54;10.50;99.90
23089;DHT22;11713;48.506;8.966;2023-03-13T05:00:43;10.50;99.90
23089;DHT22;11713;48.506;8.966;2023-03-13T05:03:10;10.40;99.90
23089;DHT22;11713;48.506;8.966;2023-03-13T05:05:54;10.40;99.90
23089;DHT22;11713;48.506;8.966;2023-03-13T05:08:39;10.40;99.90
23089;DHT22;11713;48.506;8.966;2023-03-13T05:11:24;10.40;99.90
23089;DHT22;11713;48.506;8.966;2023-03-13T05:14:01;10.40;99.90
23089;DHT22;11713;48.506;8.966;2023-03-13T05:16:28;10.50;99.90
23089;DHT22;11713;48.506;8.966;2023-03-13T05:19:13;10.50;99.90
23089;DHT22;11713;48.506;8.966;2023-03-13T05:22:08;10.50;99.90
23089;DHT22;11713;48.506;8.966;2023-03-13T05:24:47;10.50;99.90
23089;DHT22;11713;48.506;8.966;2023-03-13T05:27:36;10.50;99.90
23089;DHT22;11713;48.506;8.966;2023-03-13T05:30:29;10.50;99.90
23089;DHT22;11713;48.506;8.966;2023-03-13T05:33:21;10.50;99.90
23089;DHT22;11713;48.506;8.966;2023-03-13T05:36:00;10.50;99.90
23089;DHT22;11713;48.506;8.966;2023-03-13T05:39:01;10.50;99.90
23089;DHT22;11713;48.506;8.966;2023-03-13T05:42:06;10.50;99.90
23089;DHT22;11713;48.506;8.966;2023-03-13T05:44:46;10.60;99.90
23089;DHT22;11713;48.506;8.966;2023-03-13T05:47:26;10.60;99.90
23089;DHT22;11713;48.506;8.966;2023-03-13T05:50:15;10.70;99.90
23089;DHT22;11713;48.506;8.966;2023-03-13T05:52:53;10.70;99.90
23089;DHT22;11713;48.506;8.966;2023-03-13T05:55:51;10.80;99.90
23089;DHT22;11713;48.506;8.966;2023-03-13T05:58:55;10.80;99.90
23089;DHT22;11713;48.506;8.966;2023-03-13T06:01:40;10.90;99.90
23089;DHT22;11713;48.506;8.966;2023-03-13T06:04:19;10.90;99.90
23089;DHT22;11713;48.506;8.966;2023-03-13T06:06:46;10.90;99.90
23089;DHT22;11713;48.506;8.966;2023-03-13T06:09:13;11.00;99.90
23089;DHT22;11713;48.506;8.966;2023-03-13T06:11:40;11.00;99.90
23089;DHT22;11713;48.506;8.966;2023-03-13T06:14:06;11.00;99.90
23089;DHT22;11713;48.506;8.966;2023-03-13T06:16:53;11.00;99.90
23089;DHT22;11713;48.506;8.966;2023-03-13T06:19:20;11.00;99.90
23089;DHT22;11713;48.506;8.966;2023-03-13T06:21:47;11.00;99.90
23089;DHT22;11713;48.506;8.966;2023-03-13T06:24:16;11.00;99.90
23089;DHT22;11713;48.506;8.966;2023-03-13T06:26:42;11.00;99.90
23089;DHT22;11713;48.506;8.966;2023-03-13T06:29:09;11.10;99.90
23089;DHT22;11713;48.506;8.966;2023-03-13T06:31:36;11.10;99.90
23089;DHT22;11713;48.506;8.966;2023-03-13T06:34:01;11.10;99.90
23089;DHT22;11713;48.506;8.966;2023-03-13T06:36:27;11.10;99.90
23089;DHT22;11713;48.506;8.966;2023-03-13T06:38:53;11.10;99.90
23089;DHT22;11713;48.506;8.966;2023-03-13T06:41:19;11.20;99.90
23089;DHT22;11713;48.506;8.966;2023-03-13T06:43:45;11.20;99.90
23089;DHT22;11713;48.506;8.966;2023-03-13T06:46:19;11.20;99.90
23089;DHT22;11713;48.506;8.966;2023-03-13T06:48:45;11.30;99.90
23089;DHT22;11713;48.506;8.966;2023-03-13T06:51:15;11.40;99.90
23089;DHT22;11713;48.506;8.966;2023-03-13T06:53:42;11.40;99.90
23089;DHT22;11713;48.506;8.966;2023-03-13T06:56:08;11.40;99.90
23089;DHT22;11713;48.506;8.966;2023-03-13T06:58:35;11.50;99.90
23089;DHT22;11713;48.506;8.966;2023-03-13T07:01:12;11.50;99.90
23089;DHT22;11713;48.506;8.966;2023-03-13T07:03:39;11.50;99.90
23089;DHT22;11713;48.506;8.966;2023-03-13T07:06:09;11.60;99.90
23089;DHT22;11713;48.506;8.966;2023-03-13T07:08:36;11.60;99.90
23089;DHT22;11713;48.506;8.966;2023-03-13T07:11:04;11.70;99.90
23089;DHT22;11713;48.506;8.966;2023-03-13T07:13:30;11.70;99.90
23089;DHT22;11713;48.506;8.966;2023-03-13T07:15:59;11.80;99.90
23089;DHT22;11713;48.506;8.966;2023-03-13T07:18:25;11.80;99.90
23089;DHT22;11713;48.506;8.966;2023-03-13T07:20:55;11.90;99.90
23089;DHT22;11713;48.506;8.966;2023-03-13T07:23:23;11.90;99.90
23089;DHT22;11713;48.506;8.966;2023-03-13T07:25:53;12.00;99.90
23089;DHT22;11713;48.506;8.966;2023-03-13T07:28:20;12.10;99.90
23089;DHT22;11713;48.506;8.966;2023-03-13T07:30:47;12.20;99.90
23089;DHT22;11713;48.506;8.966;2023-03-13T07:33:13;12.20;99.90
23089;DHT22;11713;48.506;8.966;2023-03-13T07:35:38;12.30;99.90
23089;DHT22;11713;48.506;8.966;2023-03-13T07:38:04;12.40;99.90
23089;DHT22;11713;48.506;8.966;2023-03-13T07:40:30;12.50;99.90
23089;DHT22;11713;48.506;8.966;2023-03-13T07:42:56;12.50;99.90
23089;DHT22;11713;48.506;8.966;2023-03-13T07:45:22;12.50;99.90
23089;DHT22;11713;48.506;8.966;2023-03-13T07:47:48;12.60;99.90
23089;DHT22;11713;48.506;8.966;2023-03-13T07:50:14;12.60;99.90
23089;DHT22;11713;48.506;8.966;2023-03-13T07:52:40;12.70;99.90
23089;DHT22;11713;48.506;8.966;2023-03-13T07:55:06;12.70;99.90
23089;DHT22;11713;48.506;8.966;2023-03-13T07:57:32;12.80;99.90
23089;DHT22;11713;48.506;8.966;2023-03-13T07:59:58;12.80;99.90
23089;DHT22;11713;48.506;8.966;2023-03-13T08:02:23;12.80;99.90
23089;DHT22;11713;48.506;8.966;2023-03-13T08:04:52;12.80;99.90
23089;DHT22;11713;48.506;8.966;2023-03-13T08:07:18;12.90;99.90
23089;DHT22;11713;48.506;8.966;2023-03-13T08:09:44;12.80;99.90
23089;DHT22;11713;48.506;8.966;2023-03-13T08:12:10;12.90;99.90
23089;DHT22;11713;48.506;8.966;2023-03-13T08:14:36;12.90;99.90
23089;DHT22;11713;48.506;8.966;2023-03-13T08:17:02;12.90;99.90
23089;DHT22;11713;48.506;8.966;2023-03-13T08:19:28;12.90;99.90
23089;DHT22;11713;48.506;8.966;2023-03-13T08:21:54;12.90;99.90
23089;DHT22;11713;48.506;8.966;2023-03-13T08:24:20;13.00;99.90
23089;DHT22;11713;48.506;8.966;2023-03-13T08:26:46;13.00;99.90
23089;DHT22;11713;48.506;8.966;2023-03-13T08:29:13;13.00;99.90
23089;DHT22;11713;48.506;8.966;2023-03-13T08:31:45;13.10;99.90
23089;DHT22;11713;48.506;8.966;2023-03-13T08:34:13;13.10;99.90
23089;DHT22;11713;48.506;8.966;2023-03-13T08:36:40;13.20;99.90
23089;DHT22;11713;48.506;8.966;2023-03-13T08:41:37;13.30;99.90
23089;DHT22;11713;48.506;8.966;2023-03-13T08:44:06;13.30;99.90
23089;DHT22;11713;48.506;8.966;2023-03-13T08:46:34;13.30;99.90
23089;DHT22;11713;48.506;8.966;2023-03-13T08:49:00;13.40;99.90
23089;DHT22;11713;48.506;8.966;2023-03-13T08:51:27;13.40;99.90
23089;DHT22;11713;48.506;8.966;2023-03-13T08:53:54;13.50;99.90
23089;DHT22;11713;48.506;8.966;2023-03-13T08:56:25;13.50;99.90
23089;DHT22;11713;48.506;8.966;2023-03-13T08:58:54;13.60;99.90
23089;DHT22;11713;48.506;8.966;2023-03-13T09:01:22;13.70;99.90
23089;DHT22;11713;48.506;8.966;2023-03-13T09:03:48;13.70;99.90
23089;DHT22;11713;48.506;8.966;2023-03-13T09:06:14;13.70;99.90
23089;DHT22;11713;48.506;8.966;2023-03-13T09:08:41;13.80;99.90
23089;DHT22;11713;48.506;8.966;2023-03-13T09:11:10;13.80;99.90
23089;DHT22;11713;48.506;8.966;2023-03-13T09:13:40;13.90;99.90
23089;DHT22;11713;48.506;8.966;2023-03-13T09:16:11;14.00;99.90
23089;DHT22;11713;48.506;8.966;2023-03-13T09:18:38;14.00;99.90
23089;DHT22;11713;48.506;8.966;2023-03-13T09:21:25;14.10;99.90
23089;DHT22;11713;48.506;8.966;2023-03-13T09:23:51;14.20;99.90
23089;DHT22;11713;48.506;8.966;2023-03-13T09:26:18;14.50;99.90
23089;DHT22;11713;48.506;8.966;2023-03-13T09:28:44;14.70;99.90
23089;DHT22;11713;48.506;8.966;2023-03-13T09:33:36;15.10;99.90
23089;DHT22;11713;48.506;8.966;2023-03-13T09:36:03;15.30;99.90
23089;DHT22;11713;48.506;8.966;2023-03-13T09:38:29;15.40;99.90
23089;DHT22;11713;48.506;8.966;2023-03-13T09:40:59;15.50;99.90
23089;DHT22;11713;48.506;8.966;2023-03-13T09:44:05;15.60;99.90
23089;DHT22;11713;48.506;8.966;2023-03-13T09:46:38;15.70;99.90
23089;DHT22;11713;48.506;8.966;2023-03-13T09:51:57;15.70;99.90
23089;DHT22;11713;48.506;8.966;2023-03-13T09:54:33;15.50;99.90
23089;DHT22;11713;48.506;8.966;2023-03-13T10:00:15;15.50;99.90
23089;DHT22;11713;48.506;8.966;2023-03-13T10:02:59;15.70;99.90
23089;DHT22;11713;48.506;8.966;2023-03-13T10:05:28;15.90;99.90
23089;DHT22;11713;48.506;8.966;2023-03-13T10:08:25;16.10;99.90
23089;DHT22;11713;48.506;8.966;2023-03-13T10:14:04;16.30;99.90
23089;DHT22;11713;48.506;8.966;2023-03-13T10:19:11;16.40;99.90
23089;DHT22;11713;48.506;8.966;2023-03-13T10:21:38;16.50;99.90
23089;DHT22;11713;48.506;8.966;2023-03-13T10:24:42;16.40;99.90
23089;DHT22;11713;48.506;8.966;2023-03-13T10:27:10;16.40;99.90
23089;DHT22;11713;48.506;8.966;2023-03-13T10:29:38;16.30;99.90
23089;DHT22;11713;48.506;8.966;2023-03-13T10:32:06;16.40;99.90
23089;DHT22;11713;48.506;8.966;2023-03-13T10:34:59;16.40;99.90
23089;DHT22;11713;48.506;8.966;2023-03-13T10:37:29;16.40;99.90
23089;DHT22;11713;48.506;8.966;2023-03-13T10:40:19;16.40;99.90
23089;DHT22;11713;48.506;8.966;2023-03-13T10:42:47;16.50;99.90
23089;DHT22;11713;48.506;8.966;2023-03-13T10:45:16;16.50;99.90
23089;DHT22;11713;48.506;8.966;2023-03-13T10:47:42;16.70;99.90
23089;DHT22;11713;48.506;8.966;2023-03-13T10:50:17;16.80;99.90
23089;DHT22;11713;48.506;8.966;2023-03-13T10:52:47;17.00;99.90
23089;DHT22;11713;48.506;8.966;2023-03-13T10:55:25;17.20;99.90
23089;DHT22;11713;48.506;8.966;2023-03-13T10:57:56;17.40;99.90
23089;DHT22;11713;48.506;8.966;2023-03-13T11:02:56;17.80;99.90
23089;DHT22;11713;48.506;8.966;2023-03-13T11:07:49;17.80;99.90
23089;DHT22;11713;48.506;8.966;2023-03-13T11:10:19;17.60;99.90
23089;DHT22;11713;48.506;8.966;2023-03-13T11:12:53;17.60;99.90
23089;DHT22;11713;48.506;8.966;2023-03-13T11:15:46;17.60;99.90
23089;DHT22;11713;48.506;8.966;2023-03-13T11:21:03;17.70;99.90
23089;DHT22;11713;48.506;8.966;2023-03-13T11:23:36;17.80;99.90
23089;DHT22;11713;48.506;8.966;2023-03-13T11:28:59;18.00;99.90
23089;DHT22;11713;48.506;8.966;2023-03-13T11:31:43;18.10;99.90
23089;DHT22;11713;48.506;8.966;2023-03-13T11:34:23;18.20;99.90
23089;DHT22;11713;48.506;8.966;2023-03-13T11:36:59;18.40;99.90
23089;DHT22;11713;48.506;8.966;2023-03-13T11:56:04;19.40;99.90
23089;DHT22;11713;48.506;8.966;2023-03-13T12:01:50;19.60;99.90
23089;DHT22;11713;48.506;8.966;2023-03-13T12:12:39;19.90;99.90
23089;DHT22;11713;48.506;8.966;2023-03-13T12:18:24;19.90;99.90
23089;DHT22;11713;48.506;8.966;2023-03-13T12:21:08;20.10;99.90
23089;DHT22;11713;48.506;8.966;2023-03-13T12:23:41;20.20;99.90
23089;DHT22;11713;48.506;8.966;2023-03-13T12:26:24;20.30;99.90
23089;DHT22;11713;48.506;8.966;2023-03-13T12:31:41;20.50;99.90
23089;DHT22;11713;48.506;8.966;2023-03-13T12:34:26;20.60;99.90
23089;DHT22;11713;48.506;8.966;2023-03-13T12:37:09;20.60;99.90
23089;DHT22;11713;48.506;8.966;2023-03-13T12:39:42;20.70;99.90
23089;DHT22;11713;48.506;8.966;2023-03-13T12:42:35;20.60;99.90
23089;DHT22;11713;48.506;8.966;2023-03-13T12:45:07;20.60;99.90
23089;DHT22;11713;48.506;8.966;2023-03-13T12:50:34;20.60;99.90
23089;DHT22;11713;48.506;8.966;2023-03-13T13:01:34;21.00;99.90
23089;DHT22;11713;48.506;8.966;2023-03-13T13:04:05;21.00;99.90
23089;DHT22;11713;48.506;8.966;2023-03-13T13:07:00;20.90;99.90
23089;DHT22;11713;48.506;8.966;2023-03-13T13:09:35;20.80;99.90
23089;DHT22;11713;48.506;8.966;2023-03-13T13:12:23;20.80;99.90
23089;DHT22;11713;48.506;8.966;2023-03-13T13:17:33;20.50;99.90
23089;DHT22;11713;48.506;8.966;2023-03-13T13:23:19;20.20;99.90
23089;DHT22;11713;48.506;8.966;2023-03-13T13:25:46;20.30;99.90
23089;DHT22;11713;48.506;8.966;2023-03-13T13:34:06;20.40;99.90
23089;DHT22;11713;48.506;8.966;2023-03-13T13:36:41;20.60;99.90
23089;DHT22;11713;48.506;8.966;2023-03-13T13:39:43;20.70;99.90
23089;DHT22;11713;48.506;8.966;2023-03-13T13:42:45;20.70;99.90
23089;DHT22;11713;48.506;8.966;2023-03-13T13:47:48;20.80;99.90
23089;DHT22;11713;48.506;8.966;2023-03-13T13:50:26;20.70;99.90
23089;DHT22;11713;48.506;8.966;2023-03-13T13:53:31;20.70;99.90
23089;DHT22;11713;48.506;8.966;2023-03-13T13:55:59;20.70;99.90
23089;DHT22;11713;48.506;8.966;2023-03-13T13:58:29;20.70;99.90
23089;DHT22;11713;48.506;8.966;2023-03-13T14:00:59;20.70;99.90
23089;DHT22;11713;48.506;8.966;2023-03-13T14:03:31;20.70;99.90
23089;DHT22;11713;48.506;8.966;2023-03-13T14:06:19;20.60;99.90
23089;DHT22;11713;48.506;8.966;2023-03-13T14:08:48;20.50;99.90
23089;DHT22;11713;48.506;8.966;2023-03-13T14:11:31;20.50;99.90
23089;DHT22;11713;48.506;8.966;2023-03-13T14:14:15;20.50;99.90
23089;DHT22;11713;48.506;8.966;2023-03-13T14:16:46;20.60;99.90
23089;DHT22;11713;48.506;8.966;2023-03-13T14:19:32;20.60;99.90
23089;DHT22;11713;48.506;8.966;2023-03-13T14:22:05;20.60;99.90
23089;DHT22;11713;48.506;8.966;2023-03-13T14:24:33;20.60;99.90
23089;DHT22;11713;48.506;8.966;2023-03-13T14:26:59;20.60;99.90
23089;DHT22;11713;48.506;8.966;2023-03-13T14:29:25;20.70;99.90
23089;DHT22;11713;48.506;8.966;2023-03-13T14:31:53;20.80;99.90
23089;DHT22;11713;48.506;8.966;2023-03-13T14:34:20;20.90;99.90
23089;DHT22;11713;48.506;8.966;2023-03-13T14:36:55;20.90;99.90
23089;DHT22;11713;48.506;8.966;2023-03-13T14:40:03;21.00;99.90
23089;DHT22;11713;48.506;8.966;2023-03-13T14:42:22;21.00;99.90
23089;DHT22;11713;48.506;8.966;2023-03-13T14:44:49;21.10;99.90
23089;DHT22;11713;48.506;8.966;2023-03-13T14:47:24;21.10;99.90
23089;DHT22;11713;48.506;8.966;2023-03-13T14:50:00;21.10;99.90
23089;DHT22;11713;48.506;8.966;2023-03-13T14:52:30;20.90;99.90
23089;DHT22;11713;48.506;8.966;2023-03-13T14:54:59;20.80;99.90
23089;DHT22;11713;48.506;8.966;2023-03-13T14:57:35;20.70;99.90
23089;DHT22;11713;48.506;8.966;2023-03-13T15:00:41;20.60;99.90
23089;DHT22;11713;48.506;8.966;2023-03-13T15:08:45;20.50;99.90
23089;DHT22;11713;48.506;8.966;2023-03-13T15:13:45;20.40;99.90
23089;DHT22;11713;48.506;8.966;2023-03-13T15:16:17;20.30;99.90
23089;DHT22;11713;48.506;8.966;2023-03-13T15:18:45;20.20;99.90
23089;DHT22;11713;48.506;8.966;2023-03-13T15:23:47;20.10;99.90
23089;DHT22;11713;48.506;8.966;2023-03-13T15:26:14;20.10;99.90
23089;DHT22;11713;48.506;8.966;2023-03-13T15:28:40;20.00;99.90
23089;DHT22;11713;48.506;8.966;2023-03-13T15:31:10;20.00;99.90
23089;DHT22;11713;48.506;8.966;2023-03-13T15:33:36;19.90;99.90
23089;DHT22;11713;48.506;8.966;2023-03-13T15:36:02;19.90;99.90
23089;DHT22;11713;48.506;8.966;2023-03-13T15:38:28;19.90;99.90
23089;DHT22;11713;48.506;8.966;2023-03-13T15:40:54;19.90;99.90
23089;DHT22;11713;48.506;8.966;2023-03-13T15:43:23;20.00;99.90
23089;DHT22;11713;48.506;8.966;2023-03-13T15:45:51;20.00;99.90
23089;DHT22;11713;48.506;8.966;2023-03-13T15:48:27;20.00;99.90
23089;DHT22;11713;48.506;8.966;2023-03-13T15:50:59;20.00;99.90
23089;DHT22;11713;48.506;8.966;2023-03-13T15:53:32;19.90;99.90
23089;DHT22;11713;48.506;8.966;2023-03-13T15:56:01;19.80;99.90
23089;DHT22;11713;48.506;8.966;2023-03-13T15:58:28;19.70;99.90
23089;DHT22;11713;48.506;8.966;2023-03-13T16:00:55;19.60;99.90
23089;DHT22;11713;48.506;8.966;2023-03-13T16:03:24;19.60;99.90
23089;DHT22;11713;48.506;8.966;2023-03-13T16:05:52;19.60;99.90
23089;DHT22;11713;48.506;8.966;2023-03-13T16:08:22;19.60;99.90
23089;DHT22;11713;48.506;8.966;2023-03-13T16:11:10;19.60;99.90
23089;DHT22;11713;48.506;8.966;2023-03-13T16:13:37;19.50;99.90
23089;DHT22;11713;48.506;8.966;2023-03-13T16:16:15;19.50;99.90
23089;DHT22;11713;48.506;8.966;2023-03-13T16:19:03;19.50;99.90
23089;DHT22;11713;48.506;8.966;2023-03-13T16:21:32;19.40;99.90
23089;DHT22;11713;48.506;8.966;2023-03-13T16:24:18;19.40;99.90
23089;DHT22;11713;48.506;8.966;2023-03-13T16:26:45;19.30;99.90
23089;DHT22;11713;48.506;8.966;2023-03-13T16:29:15;19.30;99.90
23089;DHT22;11713;48.506;8.966;2023-03-13T16:31:41;19.20;99.90
23089;DHT22;11713;48.506;8.966;2023-03-13T16:34:09;19.10;99.90
23089;DHT22;11713;48.506;8.966;2023-03-13T16:36:36;19.00;99.90
23089;DHT22;11713;48.506;8.966;2023-03-13T16:39:05;19.00;99.90
23089;DHT22;11713;48.506;8.966;2023-03-13T16:41:34;18.90;99.90
23089;DHT22;11713;48.506;8.966;2023-03-13T16:44:00;18.80;99.90
23089;DHT22;11713;48.506;8.966;2023-03-13T16:46:38;18.80;99.90
23089;DHT22;11713;48.506;8.966;2023-03-13T16:49:06;18.70;99.90
23089;DHT22;11713;48.506;8.966;2023-03-13T16:51:32;18.70;99.90
23089;DHT22;11713;48.506;8.966;2023-03-13T16:53:58;18.60;99.90
23089;DHT22;11713;48.506;8.966;2023-03-13T16:56:32;18.50;99.90
23089;DHT22;11713;48.506;8.966;2023-03-13T16:59:02;18.50;99.90
23089;DHT22;11713;48.506;8.966;2023-03-13T17:01:29;18.50;99.90
23089;DHT22;11713;48.506;8.966;2023-03-13T17:03:56;18.40;99.90
23089;DHT22;11713;48.506;8.966;2023-03-13T17:06:28;18.40;99.90
23089;DHT22;11713;48.506;8.966;2023-03-13T17:08:56;18.30;99.90
23089;DHT22;11713;48.506;8.966;2023-03-13T17:11:24;18.30;99.90
23089;DHT22;11713;48.506;8.966;2023-03-13T17:13:52;18.20;99.90
23089;DHT22;11713;48.506;8.966;2023-03-13T17:16:30;18.20;99.90
23089;DHT22;11713;48.506;8.966;2023-03-13T17:18:57;18.10;99.90
23089;DHT22;11713;48.506;8.966;2023-03-13T17:21:29;18.00;99.90
23089;DHT22;11713;48.506;8.966;2023-03-13T17:23:59;17.90;99.90
23089;DHT22;11713;48.506;8.966;2023-03-13T17:26:28;17.90;99.90
23089;DHT22;11713;48.506;8.966;2023-03-13T17:28:55;17.80;99.90
23089;DHT22;11713;48.506;8.966;2023-03-13T17:31:23;17.70;99.90
23089;DHT22;11713;48.506;8.966;2023-03-13T17:33:50;17.70;99.90
23089;DHT22;11713;48.506;8.966;2023-03-13T17:36:24;17.70;99.90
23089;DHT22;11713;48.506;8.966;2023-03-13T17:38:54;17.60;99.90
23089;DHT22;11713;48.506;8.966;2023-03-13T17:41:22;17.50;99.90
23089;DHT22;11713;48.506;8.966;2023-03-13T17:43:50;17.30;99.90
23089;DHT22;11713;48.506;8.966;2023-03-13T17:48:42;17.20;99.90
23089;DHT22;11713;48.506;8.966;2023-03-13T17:51:29;17.10;99.90
23089;DHT22;11713;48.506;8.966;2023-03-13T17:53:56;16.90;99.90
23089;DHT22;11713;48.506;8.966;2023-03-13T17:56:25;16.80;99.90